Time;durP1;ratioP1;P1;durP2;ratioP2;P2;SDS_P1;SDS_P2;PMS_P1;PMS_P2;Temp;Humidity;BMP_temperature;BMP_pressure;BME280_temperature;BME280_humidity;BME280_pressure;Samples;Min_cycle;Max_cycle;Signal;HPM_P1;HPM_P2
2024/02/24 00:00:46;;;;;;;5.03;2.70;;;;;;;2.38;100.00;96402.75;5015328;28;20229;-79
2024/02/24 00:03:12;;;;;;;3.83;2.57;;;;;;;2.29;100.00;96405.97;5015422;28;20235;-77
2024/02/24 00:05:39;;;;;;;4.63;2.83;;;;;;;2.16;100.00;96402.47;5014686;28;20626;-78
2024/02/24 00:08:10;;;;;;;3.17;2.53;;;;;;;2.10;100.00;96397.66;5014086;28;20217;-77
2024/02/24 00:10:42;;;;;;;5.57;3.13;;;;;;;2.03;100.00;96405.94;5014047;28;20592;-77
2024/02/24 00:13:09;;;;;;;5.53;2.80;;;;;;;2.04;100.00;96413.69;5014475;28;20609;-78
2024/02/24 00:15:35;;;;;;;4.93;3.10;;;;;;;2.11;100.00;96417.56;5014866;28;20324;-77
2024/02/24 00:18:05;;;;;;;3.93;2.60;;;;;;;2.19;100.00;96410.09;5015561;28;20597;-79
2024/02/24 00:20:37;;;;;;;4.57;2.67;;;;;;;2.26;100.00;96403.53;5014891;28;20576;-77
2024/02/24 00:23:07;;;;;;;6.03;3.13;;;;;;;2.25;100.00;96391.47;5015182;28;20239;-77
2024/02/24 00:25:35;;;;;;;4.97;2.80;;;;;;;2.28;100.00;96393.84;5014843;28;20219;-79
2024/02/24 00:28:01;;;;;;;3.43;2.50;;;;;;;2.32;100.00;96397.13;5014635;28;20242;-77
2024/02/24 00:30:30;;;;;;;3.77;2.57;;;;;;;2.28;100.00;96400.84;5014509;28;20707;-77
2024/02/24 00:32:56;;;;;;;3.67;2.73;;;;;;;2.22;100.00;96396.88;5014717;28;20246;-77
2024/02/24 00:35:27;;;;;;;3.13;2.33;;;;;;;2.19;100.00;96401.41;5014806;28;20632;-78
2024/02/24 00:38:05;;;;;;;5.37;2.83;;;;;;;2.14;100.00;96404.31;5014348;28;20337;-78
2024/02/24 00:40:37;;;;;;;4.00;2.90;;;;;;;2.14;100.00;96408.72;5013374;28;20199;-80
2024/02/24 00:43:04;;;;;;;4.30;2.43;;;;;;;2.10;100.00;96400.25;5014153;28;20234;-78
2024/02/24 00:45:41;;;;;;;4.93;2.43;;;;;;;2.02;100.00;96410.31;5013824;28;20210;-80
2024/02/24 00:48:24;;;;;;;3.17;2.47;;;;;;;1.95;100.00;96409.03;5013597;28;20212;-77
2024/02/24 00:50:50;;;;;;;3.37;2.50;;;;;;;1.89;100.00;96414.63;5013840;28;20664;-77
2024/02/24 00:53:17;;;;;;;5.53;2.13;;;;;;;1.86;100.00;96413.97;5013975;28;20226;-78
2024/02/24 00:55:48;;;;;;;3.37;2.27;;;;;;;1.83;100.00;96404.56;5013522;28;20211;-77
2024/02/24 00:58:17;;;;;;;3.30;2.50;;;;;;;1.82;100.00;96402.91;5013296;28;20238;-77
2024/02/24 01:00:43;;;;;;;4.10;2.73;;;;;;;1.80;100.00;96402.19;5013656;28;20207;-77
2024/02/24 01:03:10;;;;;;;4.13;2.40;;;;;;;1.80;100.00;96396.97;5013312;28;20238;-77
2024/02/24 01:05:36;;;;;;;3.00;2.20;;;;;;;1.83;100.00;96395.94;5013527;28;20216;-78
2024/02/24 01:08:03;;;;;;;3.67;2.50;;;;;;;1.84;100.00;96406.25;5016285;28;20217;-78
2024/02/24 01:10:32;;;;;;;3.97;2.33;;;;;;;1.79;100.00;96397.88;5016246;28;20252;-79
2024/02/24 01:13:01;;;;;;;4.03;2.17;;;;;;;1.67;100.00;96400.41;5016327;28;20266;-77
2024/02/24 01:15:27;;;;;;;2.57;2.27;;;;;;;1.59;100.00;96406.09;5017310;28;20205;-78
2024/02/24 01:17:55;;;;;;;5.13;2.80;;;;;;;1.54;100.00;96402.94;5018630;28;20297;-78
2024/02/24 01:20:22;;;;;;;3.30;2.70;;;;;;;1.50;100.00;96411.88;5018769;28;20307;-78
2024/02/24 01:22:52;;;;;;;3.77;2.60;;;;;;;1.46;100.00;96415.59;5017705;28;20331;-78
2024/02/24 01:25:18;;;;;;;2.47;2.10;;;;;;;1.52;100.00;96403.94;5017467;28;20211;-78
2024/02/24 01:27:45;;;;;;;3.40;2.30;;;;;;;1.68;100.00;96421.16;5017621;28;20210;-78
2024/02/24 01:30:13;;;;;;;3.83;2.43;;;;;;;1.92;100.00;96427.47;5018390;28;20213;-78
2024/02/24 01:32:39;;;;;;;3.60;2.67;;;;;;;2.08;100.00;96425.56;5014734;28;20348;-78
2024/02/24 01:35:08;;;;;;;2.73;1.90;;;;;;;2.17;100.00;96418.94;5017686;28;20210;-78
2024/02/24 01:37:34;;;;;;;5.40;2.20;;;;;;;2.24;100.00;96415.00;5023513;28;20688;-78
2024/02/24 01:40:01;;;;;;;2.37;1.73;;;;;;;2.36;100.00;96412.47;5027911;28;20620;-79
2024/02/24 01:42:28;;;;;;;2.27;1.67;;;;;;;2.57;100.00;96412.84;5028475;28;20234;-79
2024/02/24 01:44:55;;;;;;;3.50;1.50;;;;;;;2.69;100.00;96404.22;5024794;28;20241;-78
2024/02/24 01:47:24;;;;;;;4.00;1.73;;;;;;;2.75;100.00;96406.44;5021682;28;20216;-79
2024/02/24 01:49:50;;;;;;;2.57;1.50;;;;;;;2.82;100.00;96405.91;5019187;28;20207;-78
2024/02/24 01:52:17;;;;;;;2.07;1.60;;;;;;;2.98;100.00;96417.00;5017810;28;20234;-78
2024/02/24 01:54:44;;;;;;;6.77;1.97;;;;;;;3.10;100.00;96417.97;5017552;28;20572;-78
2024/02/24 01:57:12;;;;;;;3.67;1.40;;;;;;;3.22;100.00;96419.75;5018403;28;20290;-79
2024/02/24 01:59:40;;;;;;;3.07;1.40;;;;;;;3.32;100.00;96411.22;5020154;28;20209;-78
2024/02/24 02:02:06;;;;;;;3.57;1.50;;;;;;;3.45;100.00;96409.44;5020438;28;20234;-79
2024/02/24 02:04:34;;;;;;;2.77;1.37;;;;;;;3.52;100.00;96405.47;5020078;28;20214;-78
2024/02/24 02:07:00;;;;;;;1.37;1.20;;;;;;;3.64;100.00;96404.63;5020147;28;20339;-78
2024/02/24 02:09:27;;;;;;;1.80;1.40;;;;;;;3.70;100.00;96406.81;5021651;28;20214;-79
2024/02/24 02:11:55;;;;;;;1.83;1.27;;;;;;;3.69;100.00;96412.97;5021064;28;20642;-79
2024/02/24 02:14:21;;;;;;;2.13;1.40;;;;;;;3.72;100.00;96412.75;5021816;28;20216;-79
2024/02/24 02:16:48;;;;;;;2.10;1.33;;;;;;;3.80;100.00;96420.06;5022037;28;20242;-78
2024/02/24 02:19:15;;;;;;;3.47;1.27;;;;;;;3.84;100.00;96411.06;5020813;28;20228;-78
2024/02/24 02:21:44;;;;;;;2.80;1.47;;;;;;;3.88;100.00;96412.50;5021143;28;20236;-79
2024/02/24 02:24:12;;;;;;;3.17;1.27;;;;;;;3.98;100.00;96398.69;5016523;28;20300;-78
2024/02/24 02:26:38;;;;;;;1.27;1.07;;;;;;;4.07;100.00;96400.66;5016783;28;20233;-78
2024/02/24 02:29:05;;;;;;;3.50;1.17;;;;;;;4.16;100.00;96402.63;5019607;28;20200;-78
2024/02/24 02:31:31;;;;;;;2.30;1.23;;;;;;;4.16;100.00;96402.63;5036760;28;20219;-78
2024/02/24 02:33:58;;;;;;;2.57;1.33;;;;;;;4.17;100.00;96404.28;5035353;28;20211;-78
2024/02/24 02:36:25;;;;;;;3.27;1.20;;;;;;;4.04;100.00;96402.66;5029845;28;20218;-78
2024/02/24 02:38:51;;;;;;;1.77;1.13;;;;;;;3.92;100.00;96414.78;5036473;28;20233;-78
2024/02/24 02:41:19;;;;;;;2.07;1.23;;;;;;;3.76;100.00;96409.00;5036643;28;20308;-78
2024/02/24 02:43:46;;;;;;;2.47;1.13;;;;;;;3.74;100.00;96415.25;5036764;28;20203;-78
2024/02/24 02:46:12;;;;;;;3.07;1.20;;;;;;;3.70;100.00;96419.00;5036839;28;20256;-78
2024/02/24 02:48:38;;;;;;;2.53;1.10;;;;;;;3.64;100.00;96425.50;5036583;28;20196;-78
2024/02/24 02:51:04;;;;;;;1.73;1.00;;;;;;;3.65;100.00;96424.56;5036638;28;20196;-78
2024/02/24 02:53:31;;;;;;;1.83;1.33;;;;;;;3.71;100.00;96431.13;5036732;28;20196;-78
2024/02/24 02:55:57;;;;;;;1.13;1.00;;;;;;;3.65;100.00;96432.41;5036652;28;20255;-78
2024/02/24 02:58:25;;;;;;;2.77;1.23;;;;;;;3.60;100.00;96434.50;5036476;28;20235;-78
2024/02/24 03:00:51;;;;;;;2.07;1.20;;;;;;;3.60;100.00;96434.50;5036738;28;20264;-78
2024/02/24 03:03:18;;;;;;;1.00;0.90;;;;;;;3.60;100.00;96439.72;5038046;28;20333;-78
2024/02/24 03:05:44;;;;;;;1.40;0.93;;;;;;;3.68;100.00;96436.59;5040570;28;20209;-78
2024/02/24 03:08:11;;;;;;;1.17;1.00;;;;;;;3.63;100.00;96439.53;5039959;28;20210;-78
2024/02/24 03:10:37;;;;;;;1.37;1.10;;;;;;;3.53;100.00;96438.47;5040046;28;20202;-78
2024/02/24 03:13:04;;;;;;;1.10;1.00;;;;;;;3.54;100.00;96440.13;5040183;28;20239;-78
2024/02/24 03:15:32;;;;;;;1.70;1.00;;;;;;;3.56;100.00;96443.47;5040236;28;20234;-78
2024/02/24 03:17:59;;;;;;;1.20;1.00;;;;;;;3.64;100.00;96440.34;5040089;28;20264;-78
2024/02/24 03:20:25;;;;;;;1.20;1.10;;;;;;;3.70;100.00;96446.00;5040329;28;20263;-78
2024/02/24 03:22:52;;;;;;;2.40;1.00;;;;;;;3.81;100.00;96430.41;5039647;28;20226;-78
2024/02/24 03:25:18;;;;;;;1.47;1.00;;;;;;;3.94;100.00;96419.94;5040121;28;20263;-78
2024/02/24 03:27:45;;;;;;;2.47;0.80;;;;;;;4.02;100.00;96413.22;5039857;28;20204;-78
2024/02/24 03:30:12;;;;;;;1.00;0.90;;;;;;;4.14;100.00;96412.34;5040184;28;20201;-78
2024/02/24 03:32:40;;;;;;;0.80;0.80;;;;;;;4.21;100.00;96397.91;5039663;28;20224;-78
2024/02/24 03:35:08;;;;;;;1.87;0.87;;;;;;;4.21;100.00;96410.97;5039842;28;20219;-78
2024/02/24 03:37:35;;;;;;;2.93;0.80;;;;;;;4.30;100.00;96412.09;5039787;28;20252;-78
2024/02/24 03:40:01;;;;;;;0.80;0.80;;;;;;;4.30;100.00;96407.72;5039801;28;20196;-78
2024/02/24 03:42:27;;;;;;;0.97;0.60;;;;;;;4.25;100.00;96401.97;5039710;28;20213;-78
2024/02/24 03:44:54;;;;;;;0.67;0.67;;;;;;;4.30;100.00;96407.72;5039555;28;20203;-78
2024/02/24 03:47:20;;;;;;;0.83;0.80;;;;;;;4.31;100.00;96411.16;5039705;28;20195;-78
2024/02/24 03:49:48;;;;;;;0.70;0.70;;;;;;;4.29;100.00;96408.63;5039415;28;20280;-78
2024/02/24 03:52:15;;;;;;;1.17;0.70;;;;;;;4.30;100.00;96407.72;5039513;28;20230;-78
2024/02/24 03:54:41;;;;;;;0.70;0.70;;;;;;;4.27;100.00;96415.75;5039358;28;20210;-78
2024/02/24 03:57:08;;;;;;;0.80;0.53;;;;;;;4.23;100.00;96413.47;5039598;28;20259;-78
2024/02/24 03:59:34;;;;;;;0.70;0.70;;;;;;;4.11;100.00;96430.88;5038961;28;20235;-78
2024/02/24 04:02:01;;;;;;;0.77;0.60;;;;;;;4.03;100.00;96419.28;5039428;28;20280;-78
2024/02/24 04:04:27;;;;;;;0.60;0.60;;;;;;;3.97;100.00;96432.78;5039433;28;20267;-78
2024/02/24 04:06:55;;;;;;;1.27;0.70;;;;;;;3.91;100.00;96434.03;5039397;28;20258;-78
2024/02/24 04:09:21;;;;;;;0.50;0.50;;;;;;;3.89;100.00;96435.94;5039316;28;20196;-78
2024/02/24 04:11:50;;;;;;;0.60;0.60;;;;;;;3.88;100.00;96434.28;5039110;28;20222;-78
2024/02/24 04:14:17;;;;;;;0.60;0.60;;;;;;;3.81;100.00;96438.25;5039103;28;20218;-78
2024/02/24 04:16:43;;;;;;;1.63;0.60;;;;;;;3.77;100.00;96444.63;5039179;28;20219;-78
2024/02/24 04:19:10;;;;;;;0.97;0.53;;;;;;;3.72;100.00;96449.31;5038893;28;20225;-78
2024/02/24 04:21:36;;;;;;;0.90;0.63;;;;;;;3.68;100.00;96460.91;5038951;28;20220;-78
2024/02/24 04:24:05;;;;;;;1.23;0.70;;;;;;;3.66;100.00;96457.56;5038928;28;20284;-78
2024/02/24 04:26:32;;;;;;;1.27;0.60;;;;;;;3.66;100.00;96465.41;5038950;28;20205;-78
2024/02/24 04:28:58;;;;;;;0.63;0.63;;;;;;;3.68;100.00;96460.91;5038523;28;20192;-78
2024/02/24 04:31:27;;;;;;;0.50;0.50;;;;;;;3.69;100.00;96462.59;5038777;28;20287;-78
2024/02/24 04:33:53;;;;;;;0.53;0.50;;;;;;;3.76;100.00;96456.00;5038858;28;20206;-78
2024/02/24 04:36:19;;;;;;;1.10;0.57;;;;;;;3.79;100.00;96463.63;5038843;28;20203;-78
2024/02/24 04:38:46;;;;;;;0.50;0.50;;;;;;;3.80;100.00;96457.44;5038425;28;20236;-78
2024/02/24 04:41:14;;;;;;;0.70;0.60;;;;;;;3.84;100.00;96469.38;5038734;28;20215;-78
2024/02/24 04:43:40;;;;;;;0.57;0.57;;;;;;;3.82;100.00;96466.03;5038655;28;20265;-78
2024/02/24 04:46:07;;;;;;;0.50;0.50;;;;;;;3.86;100.00;96472.72;5038461;28;20272;-78
2024/02/24 04:48:33;;;;;;;1.17;0.57;;;;;;;3.87;100.00;96477.03;5038071;28;20211;-78
2024/02/24 04:51:00;;;;;;;0.50;0.50;;;;;;;3.93;100.00;96476.59;5038450;28;20264;-78
2024/02/24 04:53:26;;;;;;;0.87;0.57;;;;;;;3.99;100.00;96481.41;5038484;28;20258;-78
2024/02/24 04:55:53;;;;;;;1.20;0.70;;;;;;;4.02;100.00;96478.56;5038458;28;20185;-78
2024/02/24 04:58:20;;;;;;;0.77;0.63;;;;;;;4.04;100.00;96479.28;5037809;28;20195;-78
2024/02/24 05:00:47;;;;;;;9.53;0.90;;;;;;;4.01;100.00;96473.44;5021179;28;20224;-78
2024/02/24 05:03:14;;;;;;;1.17;0.70;;;;;;;4.01;100.00;96479.50;5038245;28;20280;-78
2024/02/24 05:05:41;;;;;;;0.70;0.60;;;;;;;4.03;100.00;96471.56;5038276;28;20202;-78
2024/02/24 05:08:07;;;;;;;1.37;0.60;;;;;;;4.01;100.00;96471.66;5038008;28;20225;-78
2024/02/24 05:10:34;;;;;;;0.60;0.57;;;;;;;4.02;100.00;96483.78;5038176;28;20253;-78
2024/02/24 05:13:00;;;;;;;0.87;0.50;;;;;;;4.02;100.00;96494.25;5038009;28;20211;-78
2024/02/24 05:15:28;;;;;;;2.07;0.83;;;;;;;4.02;100.00;96515.16;5038170;28;20202;-78
2024/02/24 05:17:55;;;;;;;0.50;0.50;;;;;;;3.99;100.00;96515.38;5037752;28;20247;-78
2024/02/24 05:20:21;;;;;;;0.70;0.70;;;;;;;4.00;100.00;96527.50;5037849;28;20285;-78
2024/02/24 05:22:48;;;;;;;0.60;0.60;;;;;;;4.06;100.00;96532.31;5037702;28;20232;-78
2024/02/24 05:25:16;;;;;;;0.93;0.60;;;;;;;4.12;100.00;96525.81;5037050;28;20228;-78
2024/02/24 05:27:43;;;;;;;1.63;0.70;;;;;;;4.14;100.00;96532.59;5037690;28;20207;-78
2024/02/24 05:30:10;;;;;;;0.60;0.60;;;;;;;4.16;100.00;96530.72;5037766;28;20200;-78
2024/02/24 05:32:40;;;;;;;0.70;0.70;;;;;;;4.15;100.00;96525.63;5037511;28;20242;-78
2024/02/24 05:35:07;;;;;;;1.73;0.70;;;;;;;4.10;100.00;96525.91;5037686;28;20205;-78
2024/02/24 05:37:34;;;;;;;1.13;0.90;;;;;;;4.04;100.00;96528.94;5037615;28;20212;-78
2024/02/24 05:40:00;;;;;;;2.23;1.27;;;;;;;4.00;100.00;96540.56;5037439;28;20237;-78
2024/02/24 05:42:27;;;;;;;1.47;1.00;;;;;;;4.03;100.00;96540.34;5037382;28;20288;-78
2024/02/24 05:44:54;;;;;;;1.13;1.03;;;;;;;4.08;100.00;96550.47;5037478;28;20186;-78
2024/02/24 05:47:20;;;;;;;1.97;1.30;;;;;;;4.05;100.00;96559.41;5037411;28;20202;-78
2024/02/24 05:49:48;;;;;;;1.33;1.20;;;;;;;4.08;100.00;96540.88;5036677;28;20218;-78
2024/02/24 05:52:17;;;;;;;1.03;0.90;;;;;;;4.09;100.00;96545.16;5035853;28;20292;-78
2024/02/24 05:54:43;;;;;;;1.17;1.07;;;;;;;4.14;100.00;96555.28;5036852;28;20193;-78
2024/02/24 05:57:10;;;;;;;1.63;1.20;;;;;;;4.17;100.00;96555.91;5037233;28;20193;-78
2024/02/24 05:59:36;;;;;;;1.03;0.97;;;;;;;4.19;100.00;96553.19;5037079;28;20252;-78
2024/02/24 06:02:03;;;;;;;1.53;1.20;;;;;;;4.19;100.00;96559.28;5036598;28;20296;-78
2024/02/24 06:04:30;;;;;;;1.37;1.03;;;;;;;4.16;100.00;96564.69;5036953;28;20213;-78
2024/02/24 06:06:58;;;;;;;1.03;1.00;;;;;;;4.17;100.00;96555.91;5036859;28;20205;-78
2024/02/24 06:09:25;;;;;;;1.10;0.83;;;;;;;4.17;100.00;96561.13;5036952;28;20197;-78
2024/02/24 06:11:52;;;;;;;1.30;1.00;;;;;;;4.20;100.00;96571.41;5036893;28;20236;-78
2024/02/24 06:14:18;;;;;;;1.50;1.03;;;;;;;4.15;100.00;96577.91;5037185;28;20259;-78
2024/02/24 06:16:45;;;;;;;1.83;1.13;;;;;;;4.09;100.00;96588.78;5036923;28;20246;-78
2024/02/24 06:19:11;;;;;;;1.00;0.97;;;;;;;4.05;100.00;96590.75;5036620;28;20282;-78
2024/02/24 06:21:38;;;;;;;2.23;1.40;;;;;;;4.02;100.00;96593.56;5036835;28;20228;-78
2024/02/24 06:24:06;;;;;;;1.40;1.30;;;;;;;4.08;100.00;96603.59;5036629;28;20206;-78
2024/02/24 06:26:33;;;;;;;1.30;0.97;;;;;;;4.05;100.00;96611.66;5036751;28;20244;-78
2024/02/24 06:28:59;;;;;;;1.67;1.10;;;;;;;4.07;100.00;96615.00;5036243;28;20261;-78
2024/02/24 06:31:26;;;;;;;2.00;1.33;;;;;;;4.12;100.00;96610.31;5036079;28;20434;-78
2024/02/24 06:33:53;;;;;;;1.83;1.53;;;;;;;4.10;100.00;96627.84;5035735;28;20216;-78
2024/02/24 06:36:19;;;;;;;2.03;1.20;;;;;;;4.14;100.00;96637.19;5036447;28;20209;-78
2024/02/24 06:38:46;;;;;;;3.10;1.50;;;;;;;4.18;100.00;96646.50;5038363;28;20273;-78
2024/02/24 06:41:14;;;;;;;2.07;1.20;;;;;;;4.16;100.00;96637.91;5039694;28;20274;-78
2024/02/24 06:43:40;;;;;;;1.40;1.30;;;;;;;4.14;100.00;96639.78;5040420;28;20242;-78
2024/02/24 06:46:07;;;;;;;1.10;1.00;;;;;;;4.16;100.00;96645.75;5040313;28;20256;-78
2024/02/24 06:48:33;;;;;;;2.07;1.47;;;;;;;4.19;100.00;96637.72;5039800;28;20268;-78
2024/02/24 06:51:00;;;;;;;1.30;1.20;;;;;;;4.19;100.00;96645.53;5038391;28;20215;-78
2024/02/24 06:53:26;;;;;;;1.60;1.30;;;;;;;4.15;100.00;96640.63;5033538;28;20296;-78
2024/02/24 06:55:53;;;;;;;3.30;1.30;;;;;;;4.21;100.00;96653.28;5024199;28;20215;-78
2024/02/24 06:58:21;;;;;;;1.53;1.33;;;;;;;4.28;100.00;96647.53;5021449;28;20209;-78
2024/02/24 07:00:48;;;;;;;1.87;1.57;;;;;;;4.24;100.00;96643.47;5021638;28;20242;-78
2024/02/24 07:03:14;;;;;;;1.67;1.20;;;;;;;4.21;100.00;96650.69;5022722;28;20232;-78
2024/02/24 07:05:42;;;;;;;1.77;1.40;;;;;;;4.26;100.00;96652.03;5022336;28;20213;-78
2024/02/24 07:08:09;;;;;;;1.50;1.40;;;;;;;4.30;100.00;96650.91;5022453;28;20215;-78
2024/02/24 07:10:35;;;;;;;4.37;1.63;;;;;;;4.38;100.00;96653.81;5021731;28;20205;-78
2024/02/24 07:13:02;;;;;;;2.30;1.17;;;;;;;4.33;100.00;96663.75;5021557;28;20239;-78
2024/02/24 07:15:30;;;;;;;2.30;1.30;;;;;;;4.29;100.00;96675.34;5021435;28;20216;-78
2024/02/24 07:17:57;;;;;;;2.50;1.47;;;;;;;4.26;100.00;96685.19;5021897;28;20210;-78
2024/02/24 07:20:27;;;;;;;2.57;1.23;;;;;;;4.25;100.00;96697.44;5021510;28;20231;-78
2024/02/24 07:22:54;;;;;;;1.60;1.13;;;;;;;4.26;100.00;96696.47;5021326;28;20705;-78
2024/02/24 07:25:19;;;;;;;1.17;1.07;;;;;;;4.32;100.00;96711.75;5020912;28;20210;-78
2024/02/24 07:27:46;;;;;;;1.93;1.30;;;;;;;4.41;100.00;96711.13;5021474;28;20209;-78
2024/02/24 07:30:13;;;;;;;1.73;1.43;;;;;;;4.45;100.00;96717.84;5021918;28;20212;-78
2024/02/24 07:32:41;;;;;;;1.87;1.47;;;;;;;4.49;100.00;96714.09;5020914;28;20704;-78
2024/02/24 07:35:09;;;;;;;2.40;1.37;;;;;;;4.49;100.00;96723.69;5019951;28;20224;-78
2024/02/24 07:37:35;;;;;;;3.00;1.70;;;;;;;4.52;100.00;96724.34;5020419;28;20210;-78
2024/02/24 07:40:02;;;;;;;2.70;1.43;;;;;;;4.48;100.00;96733.34;5021122;28;20229;-78
2024/02/24 07:42:30;;;;;;;1.97;1.20;;;;;;;4.50;100.00;96739.31;5020980;28;20245;-78
2024/02/24 07:44:56;;;;;;;2.63;1.60;;;;;;;4.46;100.00;96740.44;5021691;28;20216;-78
2024/02/24 07:47:23;;;;;;;1.90;1.40;;;;;;;4.52;100.00;96750.50;5020278;28;20223;-78
2024/02/24 07:49:50;;;;;;;1.67;1.30;;;;;;;4.51;100.00;96758.44;5019999;28;20205;-78
2024/02/24 07:52:18;;;;;;;1.93;1.27;;;;;;;4.55;100.00;96759.91;5020372;28;20232;-78
2024/02/24 07:54:45;;;;;;;2.67;1.03;;;;;;;4.63;100.00;96755.00;5020056;28;20245;-78
2024/02/24 07:57:12;;;;;;;1.63;0.90;;;;;;;4.75;100.00;96760.25;5020695;28;20559;-78
2024/02/24 07:59:38;;;;;;;1.13;0.77;;;;;;;4.80;100.00;96771.25;5017974;28;20238;-77
2024/02/24 08:02:05;;;;;;;1.00;0.80;;;;;;;4.86;100.00;96755.13;5014171;28;20252;-77
2024/02/24 08:04:32;;;;;;;1.17;0.70;;;;;;;4.92;100.00;96754.72;5014516;28;20240;-77
2024/02/24 08:07:00;;;;;;;0.70;0.60;;;;;;;5.03;100.00;96746.09;5014033;28;20214;-76
2024/02/24 08:09:26;;;;;;;0.60;0.60;;;;;;;5.05;100.00;96749.44;5013590;28;20212;-76
2024/02/24 08:11:53;;;;;;;0.70;0.70;;;;;;;5.11;100.00;96760.34;5015215;28;20257;-77
2024/02/24 08:14:19;;;;;;;0.50;0.50;;;;;;;5.17;100.00;96759.91;5014622;28;20291;-77
2024/02/24 08:16:46;;;;;;;0.50;0.50;;;;;;;5.18;100.00;96760.75;5013884;28;20213;-77
2024/02/24 08:19:13;;;;;;;0.63;0.50;;;;;;;5.21;100.00;96758.78;5014407;28;20217;-77
2024/02/24 08:21:39;;;;;;;1.03;0.60;;;;;;;5.19;100.00;96768.50;5014906;28;20229;-77
2024/02/24 08:24:09;;;;;;;0.50;0.50;;;;;;;5.23;100.00;96769.13;5014621;28;20221;-77
2024/02/24 08:26:38;;;;;;;0.40;0.40;;;;;;;5.19;98.88;96773.75;5013618;28;20216;-77
2024/02/24 08:29:05;;;;;;;0.43;0.43;;;;;;;5.18;96.99;96774.69;5014172;28;20237;-78
2024/02/24 08:31:33;;;;;;;0.43;0.30;;;;;;;5.16;96.42;96768.72;5013665;28;20435;-77
2024/02/24 08:33:59;;;;;;;0.40;0.40;;;;;;;5.23;96.55;96771.75;4994678;28;20246;-77
2024/02/24 08:36:25;;;;;;;0.33;0.33;;;;;;;5.24;96.71;96776.88;4994691;28;20224;-78
2024/02/24 08:38:52;;;;;;;0.40;0.40;;;;;;;5.33;95.31;96763.16;4994086;28;20213;-77
2024/02/24 08:41:20;;;;;;;0.57;0.50;;;;;;;5.29;95.26;96782.66;4993880;28;20234;-77
2024/02/24 08:43:46;;;;;;;0.50;0.50;;;;;;;5.31;95.60;96778.13;4995611;28;20221;-77
2024/02/24 08:46:16;;;;;;;0.60;0.30;;;;;;;5.46;95.34;96782.31;4995656;28;20312;-77
2024/02/24 08:48:42;;;;;;;0.40;0.40;;;;;;;5.51;96.04;96788.03;4994859;28;20609;-77
2024/02/24 08:51:09;;;;;;;0.40;0.40;;;;;;;5.61;94.43;96783.84;4993659;28;20203;-77
2024/02/24 08:53:35;;;;;;;0.40;0.40;;;;;;;5.67;94.39;96780.78;4993833;28;20207;-77
2024/02/24 08:56:02;;;;;;;0.50;0.40;;;;;;;5.71;94.19;96792.72;4993764;28;20218;-77
2024/02/24 08:58:30;;;;;;;0.30;0.30;;;;;;;5.79;94.06;96784.28;4993947;28;20280;-77
2024/02/24 09:00:58;;;;;;;0.30;0.30;;;;;;;5.86;94.46;96781.16;4993615;28;20230;-78
2024/02/24 09:03:24;;;;;;;0.30;0.30;;;;;;;5.92;91.80;96775.47;4994836;28;20268;-78
2024/02/24 09:05:51;;;;;;;0.47;0.47;;;;;;;5.98;93.54;96785.53;4993911;28;20217;-78
2024/02/24 09:08:17;;;;;;;0.30;0.30;;;;;;;6.06;92.94;96780.59;4993089;28;20297;-77
2024/02/24 09:10:44;;;;;;;0.30;0.30;;;;;;;6.22;91.06;96773.25;4993112;28;20212;-77
2024/02/24 09:13:10;;;;;;;0.30;0.30;;;;;;;6.45;85.64;96730.41;4993480;28;20229;-78
2024/02/24 09:15:38;;;;;;;0.40;0.40;;;;;;;6.65;84.30;96727.13;4993490;28;20207;-76
2024/02/24 09:18:07;;;;;;;0.40;0.40;;;;;;;6.73;84.07;96722.13;4993145;28;20827;-77
2024/02/24 09:20:35;;;;;;;0.30;0.30;;;;;;;6.88;84.11;96751.63;4994065;28;20593;-77
2024/02/24 09:23:02;;;;;;;0.20;0.20;;;;;;;6.88;83.89;96765.59;4993360;28;20329;-76
2024/02/24 09:25:28;;;;;;;0.40;0.40;;;;;;;6.96;82.31;96763.22;4993238;28;20218;-77
2024/02/24 09:27:55;;;;;;;0.30;0.30;;;;;;;6.99;81.62;96768.25;4992866;28;20215;-76
2024/02/24 09:30:23;;;;;;;0.70;0.30;;;;;;;7.13;81.12;96767.16;4993379;28;20212;-78
2024/02/24 09:32:51;;;;;;;0.40;0.40;;;;;;;7.27;80.42;96767.78;4993891;28;20244;-77
2024/02/24 09:35:17;;;;;;;1.43;0.40;;;;;;;7.41;80.10;96773.63;4993206;28;20305;-77
2024/02/24 09:37:44;;;;;;;0.63;0.30;;;;;;;7.53;79.61;96777.13;4992833;28;20591;-77
2024/02/24 09:40:12;;;;;;;0.30;0.30;;;;;;;7.62;78.93;96776.38;4992811;28;20249;-77
2024/02/24 09:42:39;;;;;;;0.50;0.50;;;;;;;7.63;79.85;96786.78;4992756;28;20724;-77
2024/02/24 09:45:11;;;;;;;0.40;0.40;;;;;;;7.69;79.21;96788.06;4992815;28;20289;-76
2024/02/24 09:47:38;;;;;;;0.30;0.30;;;;;;;7.69;78.95;96788.06;4993276;28;20214;-78
2024/02/24 09:50:07;;;;;;;0.50;0.50;;;;;;;7.74;78.12;96778.03;4994341;28;20227;-81
2024/02/24 09:52:34;;;;;;;0.30;0.30;;;;;;;7.80;78.19;96782.81;4995355;28;20657;-80
2024/02/24 09:55:01;;;;;;;1.37;0.40;;;;;;;7.78;77.74;96775.03;4992838;28;20227;-78
2024/02/24 09:57:30;;;;;;;1.10;0.53;;;;;;;7.81;77.10;96779.22;4993180;28;20221;-77
2024/02/24 09:59:57;;;;;;;0.20;0.20;;;;;;;7.89;78.11;96790.00;4992424;28;20236;-77
2024/02/24 10:02:24;;;;;;;0.40;0.40;;;;;;;7.89;76.83;96782.09;4992497;28;20289;-77
2024/02/24 10:04:53;;;;;;;0.30;0.30;;;;;;;8.16;76.97;96783.34;4992456;28;20220;-77
2024/02/24 10:07:20;;;;;;;0.40;0.40;;;;;;;8.45;74.17;96762.59;4992237;28;20211;-77
2024/02/24 10:09:47;;;;;;;0.50;0.30;;;;;;;8.77;73.34;96752.84;4992335;28;20216;-77
2024/02/24 10:12:14;;;;;;;0.30;0.30;;;;;;;8.95;70.20;96735.47;4992359;28;20591;-77
2024/02/24 10:14:40;;;;;;;1.20;0.40;;;;;;;9.02;70.12;96748.03;4992331;28;20209;-77
2024/02/24 10:17:08;;;;;;;0.30;0.30;;;;;;;9.19;71.20;96754.47;4992306;28;20733;-77
2024/02/24 10:19:35;;;;;;;0.30;0.30;;;;;;;9.33;69.50;96746.22;4992233;28;20303;-77
2024/02/24 10:22:04;;;;;;;0.30;0.30;;;;;;;9.43;67.52;96733.91;4991603;28;20240;-77
2024/02/24 10:24:32;;;;;;;0.40;0.40;;;;;;;9.50;67.80;96742.97;4992338;28;20314;-77
2024/02/24 10:26:59;;;;;;;0.73;0.40;;;;;;;9.44;66.46;96728.53;4991967;28;20660;-77
2024/02/24 10:29:28;;;;;;;0.90;0.30;;;;;;;9.41;65.22;96726.13;4992221;28;20214;-78
2024/02/24 10:31:55;;;;;;;0.40;0.40;;;;;;;9.32;65.59;96739.28;4992226;28;20240;-77
2024/02/24 10:34:22;;;;;;;0.63;0.40;;;;;;;9.25;65.22;96733.69;4994321;28;20215;-77
2024/02/24 10:36:52;;;;;;;0.23;0.23;;;;;;;9.32;67.00;96758.59;5010303;28;20656;-77
2024/02/24 10:39:19;;;;;;;0.43;0.40;;;;;;;9.44;65.79;96748.78;5011212;28;20308;-78
2024/02/24 10:41:48;;;;;;;0.40;0.40;;;;;;;9.45;66.63;96758.34;5012724;28;20236;-78
2024/02/24 10:44:15;;;;;;;0.30;0.30;;;;;;;9.52;66.90;96759.47;5011496;28;20216;-79
2024/02/24 10:46:41;;;;;;;0.60;0.50;;;;;;;9.61;66.20;96754.25;5011451;28;20210;-77
2024/02/24 10:49:08;;;;;;;0.53;0.53;;;;;;;9.65;65.20;96736.34;5010627;28;20219;-77
2024/02/24 10:51:36;;;;;;;0.33;0.33;;;;;;;9.55;64.10;96724.94;5010821;28;20224;-77
2024/02/24 10:54:08;;;;;;;0.40;0.40;;;;;;;9.57;61.54;96696.63;5011009;28;20213;-77
2024/02/24 10:56:35;;;;;;;0.40;0.40;;;;;;;9.49;62.52;96722.84;5011027;28;20223;-77
2024/02/24 10:59:10;;;;;;;0.50;0.50;;;;;;;9.50;64.27;96743.81;5010742;28;20243;-77
2024/02/24 11:01:43;;;;;;;0.50;0.40;;;;;;;9.45;62.33;96714.38;5011751;28;20241;-79
2024/02/24 11:04:12;;;;;;;0.30;0.30;;;;;;;9.41;60.91;96691.84;5013698;28;20205;-79
2024/02/24 11:06:46;;;;;;;0.20;0.20;;;;;;;9.29;59.09;96671.84;5011987;28;20208;-79
2024/02/24 11:09:16;;;;;;;0.30;0.30;;;;;;;9.32;58.34;96676.00;5010499;28;20211;-79
2024/02/24 11:11:43;;;;;;;0.37;0.27;;;;;;;9.23;59.07;96697.91;5004441;28;20237;-79
2024/02/24 11:14:11;;;;;;;0.20;0.20;;;;;;;9.16;60.00;96712.56;5023828;28;20254;-79
2024/02/24 11:16:41;;;;;;;0.30;0.30;;;;;;;9.13;61.13;96736.56;5022262;28;20224;-74
2024/02/24 11:19:10;;;;;;;0.30;0.30;;;;;;;9.05;58.33;96687.13;5012859;28;20217;-78
2024/02/24 11:22:00;;;;;;;1.00;0.40;;;;;;;9.07;58.60;96703.63;5012524;28;20319;-79
2024/02/24 11:24:31;;;;;;;0.40;0.30;;;;;;;9.06;58.35;96695.88;5013541;28;20209;-80
2024/02/24 11:26:58;;;;;;;0.93;0.40;;;;;;;9.01;57.00;96671.72;5017358;28;20232;-79
2024/02/24 11:29:27;;;;;;;0.37;0.30;;;;;;;9.04;58.10;96698.66;5016853;28;20208;-79
2024/02/24 11:32:05;;;;;;;0.30;0.30;;;;;;;9.13;56.96;96686.47;5015344;28;20244;-79
2024/02/24 11:34:33;;;;;;;0.40;0.40;;;;;;;9.05;56.17;96663.41;5018909;28;20211;-79
2024/02/24 11:37:00;;;;;;;0.20;0.20;;;;;;;9.15;57.84;96700.34;5015575;28;20234;-78